Time;durP1;ratioP1;P1;durP2;ratioP2;P2;SDS_P1;SDS_P2;PMS_P1;PMS_P2;Temp;Humidity;BMP_temperature;BMP_pressure;BME280_temperature;BME280_humidity;BME280_pressure;Samples;Min_cycle;Max_cycle;Signal;HPM_P1;HPM_P2
2022/06/01 00:00:54;;;;;;;1.50;1.40;;;;;;;14.86;59.47;98617.97;5092721;28;38981;-77
2022/06/01 00:03:23;;;;;;;1.67;1.53;;;;;;;14.77;60.04;98629.41;5093114;28;41865;-76
2022/06/01 00:05:53;;;;;;;1.10;1.10;;;;;;;14.66;60.70;98625.81;5092879;28;43528;-80
2022/06/01 00:08:21;;;;;;;1.77;1.47;;;;;;;14.48;60.49;98608.66;5092584;28;42167;-78
2022/06/01 00:10:49;;;;;;;1.40;1.20;;;;;;;14.49;60.31;98630.81;5094620;28;39916;-79
2022/06/01 00:13:19;;;;;;;1.70;1.23;;;;;;;14.42;60.31;98625.16;5092568;28;40235;-79
2022/06/01 00:15:47;;;;;;;1.67;1.57;;;;;;;14.35;61.27;98619.44;5093930;28;44219;-77
2022/06/01 00:18:15;;;;;;;1.90;1.33;;;;;;;14.31;60.88;98631.34;5075664;28;41087;-75
2022/06/01 00:20:44;;;;;;;1.40;1.30;;;;;;;14.11;61.06;98593.97;5093167;28;40954;-76
2022/06/01 00:23:11;;;;;;;1.33;1.23;;;;;;;14.19;60.74;98616.34;5093952;28;41754;-80
2022/06/01 00:25:38;;;;;;;1.87;1.70;;;;;;;14.14;61.29;98615.03;5093239;28;43498;-77
2022/06/01 00:28:06;;;;;;;1.87;1.57;;;;;;;14.07;61.13;98616.50;5075711;28;43817;-75
2022/06/01 00:30:36;;;;;;;1.67;1.57;;;;;;;13.99;61.17;98623.28;5092765;28;38972;-77
2022/06/01 00:33:04;;;;;;;2.43;1.70;;;;;;;13.92;61.40;98615.91;5094454;28;41745;-76
2022/06/01 00:35:33;;;;;;;1.37;1.27;;;;;;;13.85;61.41;98620.84;5100648;28;42455;-75
2022/06/01 00:38:00;;;;;;;1.30;1.20;;;;;;;13.80;61.27;98622.22;5084865;28;42481;-72
2022/06/01 00:40:30;;;;;;;1.40;1.30;;;;;;;13.73;61.74;98621.81;5102863;28;40702;-75
2022/06/01 00:42:59;;;;;;;1.50;1.40;;;;;;;13.66;61.46;98626.81;5101138;28;42746;-77
2022/06/01 00:45:29;;;;;;;1.30;1.20;;;;;;;13.61;62.03;98620.13;5102525;28;42760;-73
2022/06/01 00:47:58;;;;;;;1.30;1.20;;;;;;;13.57;61.75;98616.03;5098445;28;42749;-72
2022/06/01 00:50:31;;;;;;;1.43;1.33;;;;;;;13.52;61.94;98623.53;5092064;28;38864;-80
2022/06/01 00:53:03;;;;;;;1.73;1.63;;;;;;;13.45;61.91;98614.34;5092123;28;41532;-74
2022/06/01 00:55:33;;;;;;;1.60;1.50;;;;;;;13.41;61.93;98623.53;5092192;28;41666;-78
2022/06/01 00:58:05;;;;;;;1.43;1.30;;;;;;;13.34;62.12;98630.28;5091595;28;41302;-76
2022/06/01 01:00:38;;;;;;;1.57;1.17;;;;;;;13.27;62.88;98628.09;5075411;28;39085;-75
2022/06/01 01:03:10;;;;;;;1.43;1.33;;;;;;;13.22;63.46;98611.66;5092287;28;42149;-77
2022/06/01 01:05:41;;;;;;;1.60;1.50;;;;;;;13.15;64.12;98613.09;5090183;28;42716;-82
2022/06/01 01:08:09;;;;;;;1.70;1.40;;;;;;;13.12;64.16;98612.44;5090989;28;41122;-78
2022/06/01 01:10:37;;;;;;;1.50;1.40;;;;;;;13.05;63.76;98621.84;5092162;28;40749;-73
2022/06/01 01:13:09;;;;;;;1.23;1.20;;;;;;;13.04;63.59;98621.00;5092829;28;41959;-79
2022/06/01 01:15:40;;;;;;;1.77;1.67;;;;;;;13.02;64.72;98620.25;5089773;28;42684;-76
2022/06/01 01:18:12;;;;;;;1.57;1.47;;;;;;;12.99;64.98;98614.31;5090481;28;43032;-81
2022/06/01 01:20:51;;;;;;;1.90;1.80;;;;;;;12.78;65.30;98585.75;5090037;28;39920;-81
2022/06/01 01:23:26;;;;;;;1.90;1.70;;;;;;;12.89;65.25;98619.50;5091314;28;43095;-78
2022/06/01 01:25:55;;;;;;;1.80;1.37;;;;;;;12.72;64.73;98606.66;5089761;28;42731;-79
2022/06/01 01:28:23;;;;;;;1.67;1.57;;;;;;;12.82;64.49;98635.06;5091381;28;41330;-76
2022/06/01 01:31:02;;;;;;;1.70;1.60;;;;;;;12.75;64.21;98631.16;5092786;28;39967;-75
2022/06/01 01:33:31;;;;;;;1.57;1.40;;;;;;;12.77;63.95;98631.06;5092217;28;41981;-79
2022/06/01 01:36:02;;;;;;;1.70;1.60;;;;;;;12.78;64.01;98640.72;5091652;28;41597;-76
2022/06/01 01:38:36;;;;;;;1.47;1.37;;;;;;;12.74;64.70;98633.94;5092037;28;42311;-72
2022/06/01 01:41:09;;;;;;;1.83;1.73;;;;;;;12.71;64.65;98631.53;5089705;28;39862;-77
2022/06/01 01:43:44;;;;;;;1.73;1.50;;;;;;;12.63;64.39;98629.44;5091582;28;41142;-78
2022/06/01 01:46:12;;;;;;;1.60;1.50;;;;;;;12.61;64.39;98638.50;5088240;28;43335;-76
2022/06/01 01:48:39;;;;;;;1.47;1.37;;;;;;;12.55;65.93;98627.34;5074185;28;41133;-82
2022/06/01 01:51:07;;;;;;;1.50;1.40;;;;;;;12.50;65.56;98634.78;5091514;28;40036;-80
2022/06/01 01:53:35;;;;;;;1.43;1.30;;;;;;;12.44;65.26;98629.97;5092052;28;41759;-76
2022/06/01 01:56:16;;;;;;;1.50;1.40;;;;;;;12.39;65.09;98632.09;5091453;28;42712;-73
2022/06/01 01:59:02;;;;;;;1.37;1.27;;;;;;;12.34;65.48;98628.94;5090511;28;43036;-79
2022/06/01 02:01:46;;;;;;;1.70;1.60;;;;;;;12.32;65.93;98630.00;5091185;28;38937;-76
2022/06/01 02:07:12;;;;;;;1.37;1.27;;;;;;;12.22;66.08;98625.38;5091913;28;42762;-79
2022/06/01 02:12:43;;;;;;;1.40;1.30;;;;;;;12.13;65.99;98625.16;5089421;28;40109;-77
2022/06/01 02:15:18;;;;;;;2.23;1.33;;;;;;;12.07;66.11;98621.16;5089008;28;41904;-76
2022/06/01 02:17:50;;;;;;;2.10;1.90;;;;;;;12.02;66.02;98622.44;5090539;28;42681;-74
2022/06/01 02:20:25;;;;;;;1.40;1.30;;;;;;;11.97;65.87;98624.59;5090721;28;41003;-75
2022/06/01 02:22:53;;;;;;;1.73;1.63;;;;;;;11.93;65.78;98620.47;5089667;28;40834;-75
2022/06/01 02:25:20;;;;;;;1.20;1.13;;;;;;;11.88;65.81;98616.31;5092023;28;41619;-75
2022/06/01 02:27:52;;;;;;;1.90;1.50;;;;;;;11.84;65.92;98620.19;5073767;28;41805;-76
2022/06/01 02:30:23;;;;;;;2.43;1.80;;;;;;;11.81;65.63;98615.09;5087912;28;43142;-79
2022/06/01 02:32:54;;;;;;;1.90;1.37;;;;;;;11.71;65.36;98608.72;5089302;28;39974;-77
2022/06/01 02:35:23;;;;;;;1.47;1.37;;;;;;;11.73;65.43;98619.22;5092092;28;41706;-78
2022/06/01 02:37:55;;;;;;;2.30;1.63;;;;;;;11.68;65.52;98619.53;5090567;28;42109;-76
2022/06/01 02:40:25;;;;;;;1.40;1.30;;;;;;;11.65;65.11;98614.44;5088905;28;42214;-78
2022/06/01 02:42:54;;;;;;;1.53;1.43;;;;;;;11.63;65.06;98621.63;5091800;28;39929;-76
2022/06/01 02:45:24;;;;;;;1.33;1.20;;;;;;;11.59;65.32;98614.88;5090476;28;43561;-78
2022/06/01 02:47:54;;;;;;;2.07;1.97;;;;;;;11.58;66.04;98613.19;5091448;28;43842;-76
2022/06/01 02:50:24;;;;;;;1.60;1.50;;;;;;;11.58;65.56;98623.78;5090606;28;43144;-78
2022/06/01 02:52:52;;;;;;;1.50;1.40;;;;;;;11.58;65.66;98623.78;5090461;28;40912;-77
2022/06/01 02:55:22;;;;;;;1.60;1.50;;;;;;;11.55;65.79;98607.22;5073626;28;40386;-78
2022/06/01 02:57:50;;;;;;;1.50;1.40;;;;;;;11.57;65.54;98616.78;5090169;28;42669;-77
2022/06/01 03:00:21;;;;;;;1.63;1.53;;;;;;;11.56;65.52;98620.38;5073503;28;45133;-78
2022/06/01 03:02:51;;;;;;;1.73;1.43;;;;;;;11.55;65.57;98628.44;5090137;28;39393;-78
2022/06/01 03:05:20;;;;;;;1.83;1.70;;;;;;;11.49;65.54;98625.28;5091578;28;43768;-79
2022/06/01 03:07:48;;;;;;;1.43;1.33;;;;;;;11.45;65.72;98617.66;5072783;28;41788;-74
2022/06/01 03:10:16;;;;;;;1.83;1.73;;;;;;;11.40;65.95;98617.09;5090389;28;42337;-78
2022/06/01 03:12:44;;;;;;;1.60;1.50;;;;;;;11.36;65.79;98616.50;5093163;28;39902;-73
2022/06/01 03:15:15;;;;;;;2.00;1.80;;;;;;;11.32;65.99;98616.78;5094793;28;42709;-75
2022/06/01 03:17:45;;;;;;;1.60;1.50;;;;;;;11.27;66.15;98614.47;5075912;28;42358;-75
2022/06/01 03:20:14;;;;;;;1.70;1.60;;;;;;;11.24;66.16;98613.84;5093619;28;41774;-74
2022/06/01 03:22:43;;;;;;;1.67;1.57;;;;;;;11.22;66.24;98618.41;5093445;28;38937;-75
2022/06/01 03:25:14;;;;;;;1.87;1.73;;;;;;;11.19;66.58;98610.66;5093532;28;42712;-76
2022/06/01 03:27:42;;;;;;;1.70;1.60;;;;;;;11.20;66.13;98607.03;5076530;28;43449;-81
2022/06/01 03:30:15;;;;;;;1.60;1.50;;;;;;;11.18;66.27;98604.50;5076910;28;42670;-74
2022/06/01 03:32:45;;;;;;;1.67;1.57;;;;;;;11.20;66.32;98597.28;5092999;28;40098;-75
2022/06/01 03:35:14;;;;;;;1.53;1.43;;;;;;;11.22;66.41;98605.13;5093442;28;42319;-75
2022/06/01 03:37:42;;;;;;;1.60;1.50;;;;;;;11.24;66.54;98603.25;5094418;28;43221;-77
2022/06/01 03:40:10;;;;;;;2.20;1.83;;;;;;;11.24;66.19;98608.53;5094490;28;42415;-77
2022/06/01 03:42:38;;;;;;;1.53;1.40;;;;;;;11.25;66.81;98615.53;5093067;28;38962;-78
2022/06/01 03:47:50;;;;;;;2.17;1.70;;;;;;;11.24;66.52;98613.84;5042146;28;41455;-76
2022/06/01 03:50:18;;;;;;;1.97;1.80;;;;;;;11.23;66.59;98609.50;5094462;28;43091;-75
2022/06/01 03:52:46;;;;;;;1.40;1.30;;;;;;;11.21;66.72;98614.03;5093186;28;38935;-81
2022/06/01 03:55:15;;;;;;;1.73;1.37;;;;;;;11.25;66.54;98626.16;5093225;28;41685;-79
2022/06/01 03:57:43;;;;;;;1.70;1.60;;;;;;;11.15;66.35;98608.19;5093515;28;43620;-78
2022/06/01 04:00:14;;;;;;;1.40;1.30;;;;;;;11.32;66.55;98617.66;5094102;28;42095;-79
2022/06/01 04:02:42;;;;;;;1.73;1.60;;;;;;;11.30;66.30;98608.09;5091396;28;40887;-78
2022/06/01 04:05:12;;;;;;;2.07;1.87;;;;;;;11.43;66.27;98620.41;5094003;28;41855;-75
2022/06/01 04:07:39;;;;;;;2.27;2.07;;;;;;;11.49;66.44;98619.13;5091962;28;44815;-75
2022/06/01 04:10:08;;;;;;;2.97;2.57;;;;;;;11.60;66.32;98613.91;5093010;28;42108;-78
2022/06/01 04:12:36;;;;;;;2.60;2.13;;;;;;;11.54;66.74;98579.88;5092917;28;39034;-75
2022/06/01 04:15:04;;;;;;;3.57;2.80;;;;;;;11.71;67.07;98603.41;5094055;28;41980;-74
2022/06/01 04:17:32;;;;;;;3.33;3.03;;;;;;;11.86;67.13;98612.97;5093327;28;42978;-80
2022/06/01 04:19:59;;;;;;;2.00;1.90;;;;;;;11.95;67.25;98611.44;5092843;28;42338;-78
2022/06/01 04:22:29;;;;;;;3.00;2.67;;;;;;;12.05;66.94;98616.94;5093399;28;40995;-80
2022/06/01 04:24:56;;;;;;;2.00;1.80;;;;;;;12.15;66.91;98617.94;5093884;28;42172;-79
2022/06/01 04:27:24;;;;;;;2.80;1.80;;;;;;;12.27;66.82;98618.88;5093237;28;43674;-79
2022/06/01 04:29:52;;;;;;;1.73;1.50;;;;;;;12.35;66.68;98621.81;5092564;28;41170;-72
2022/06/01 04:32:25;;;;;;;2.07;1.90;;;;;;;12.45;66.43;98614.88;5092231;28;39997;-76
2022/06/01 04:34:52;;;;;;;1.83;1.70;;;;;;;12.54;65.98;98608.88;5075504;28;41780;-79
2022/06/01 04:37:20;;;;;;;1.80;1.43;;;;;;;12.64;65.91;98614.34;5092026;28;43872;-78
2022/06/01 04:39:49;;;;;;;2.27;2.07;;;;;;;12.68;65.75;98621.13;5093654;28;42472;-77
2022/06/01 04:42:16;;;;;;;2.03;1.93;;;;;;;12.67;65.80;98611.47;5092206;28;40247;-73
2022/06/01 04:44:44;;;;;;;1.80;1.70;;;;;;;12.63;65.83;98615.28;5092468;28;41727;-78
2022/06/01 04:47:11;;;;;;;2.33;2.10;;;;;;;12.57;65.58;98612.16;5091827;28;41942;-74
2022/06/01 04:49:39;;;;;;;1.50;1.40;;;;;;;12.53;65.56;98613.34;5091843;28;41191;-75
2022/06/01 04:52:09;;;;;;;1.90;1.80;;;;;;;12.63;65.46;98623.25;5092168;28;39998;-77
2022/06/01 04:54:36;;;;;;;2.00;1.80;;;;;;;12.74;65.31;98628.63;5092231;28;41902;-76
2022/06/01 04:57:07;;;;;;;2.43;2.20;;;;;;;12.86;65.37;98630.34;5091826;28;42689;-75
2022/06/01 04:59:35;;;;;;;3.23;2.50;;;;;;;12.97;65.96;98626.91;5091529;28;42520;-83
2022/06/01 05:02:03;;;;;;;2.40;2.20;;;;;;;13.09;65.49;98632.16;5091575;28;39202;-79
2022/06/01 05:04:30;;;;;;;2.63;2.10;;;;;;;13.19;65.11;98625.19;5075245;28;41475;-75
2022/06/01 05:06:58;;;;;;;2.50;2.30;;;;;;;13.29;65.27;98618.19;5091881;28;42731;-82
2022/06/01 05:09:26;;;;;;;2.50;2.30;;;;;;;13.49;65.56;98615.78;5074971;28;40978;-78
2022/06/01 05:11:53;;;;;;;3.60;3.30;;;;;;;13.60;66.60;98605.13;5091531;28;40278;-76
2022/06/01 05:14:22;;;;;;;2.97;2.63;;;;;;;13.72;66.27;98606.84;5074792;28;42499;-76
2022/06/01 05:16:50;;;;;;;2.77;2.57;;;;;;;13.93;65.76;98613.13;5092500;28;43028;-77
2022/06/01 05:19:18;;;;;;;3.03;2.63;;;;;;;14.12;65.72;98616.94;5092887;28;43301;-76
2022/06/01 05:21:46;;;;;;;3.20;2.90;;;;;;;14.26;66.01;98612.22;5091427;28;38773;-79
2022/06/01 05:24:13;;;;;;;3.37;3.00;;;;;;;14.41;65.72;98618.13;5091865;28;40552;-81
2022/06/01 05:26:41;;;;;;;3.00;2.70;;;;;;;14.58;65.50;98608.78;5091534;28;41810;-79
2022/06/01 05:29:09;;;;;;;5.97;2.93;;;;;;;14.71;65.83;98610.25;5092934;28;42517;-72
2022/06/01 05:31:38;;;;;;;4.13;3.10;;;;;;;14.90;65.67;98619.41;5092766;28;39809;-79
2022/06/01 05:34:05;;;;;;;3.27;2.97;;;;;;;15.06;65.08;98615.31;5091209;28;41865;-78
2022/06/01 05:36:33;;;;;;;2.87;2.50;;;;;;;15.23;64.84;98619.22;5091117;28;41429;-77
2022/06/01 05:39:01;;;;;;;3.50;2.47;;;;;;;15.42;64.86;98616.66;5092794;28;42361;-74
2022/06/01 05:41:28;;;;;;;4.03;3.00;;;;;;;15.61;64.54;98615.94;5092517;28;39985;-75
2022/06/01 05:43:55;;;;;;;2.50;2.30;;;;;;;15.79;63.90;98619.69;5091388;28;42934;-76
2022/06/01 05:46:23;;;;;;;3.87;2.70;;;;;;;15.92;63.27;98616.78;5074273;28;44817;-79
2022/06/01 05:48:52;;;;;;;3.40;2.60;;;;;;;16.10;63.54;98617.81;5092151;28;42239;-79
2022/06/01 05:51:20;;;;;;;3.27;2.40;;;;;;;16.23;62.58;98638.94;5092914;28;40854;-76
2022/06/01 05:53:48;;;;;;;2.90;2.00;;;;;;;16.34;62.81;98637.97;5073920;28;41870;-80
2022/06/01 05:56:15;;;;;;;2.60;2.40;;;;;;;16.48;62.29;98637.59;5091290;28;41714;-77
2022/06/01 05:58:43;;;;;;;2.47;2.27;;;;;;;16.62;61.82;98647.91;5073950;28;41497;-77
2022/06/01 06:01:10;;;;;;;2.77;2.57;;;;;;;16.78;61.59;98656.25;5073918;28;41670;-75
2022/06/01 06:03:38;;;;;;;2.50;2.30;;;;;;;16.91;61.04;98665.81;5082895;28;42354;-76
2022/06/01 06:06:20;;;;;;;4.27;3.07;;;;;;;17.04;60.66;98661.03;5090775;28;43719;-75
2022/06/01 06:08:50;;;;;;;2.30;2.10;;;;;;;17.14;60.06;98667.22;5089064;28;43196;-79
2022/06/01 06:11:18;;;;;;;3.87;2.73;;;;;;;17.24;59.66;98670.75;5073925;28;38458;-76
2022/06/01 06:13:47;;;;;;;2.60;2.40;;;;;;;17.35;59.60;98665.22;5085448;28;41149;-76
2022/06/01 06:16:16;;;;;;;2.60;2.40;;;;;;;17.46;59.70;98667.75;5089823;28;41892;-77
2022/06/01 06:18:44;;;;;;;2.90;2.63;;;;;;;17.62;59.60;98671.66;5089086;28;42462;-76
2022/06/01 06:21:14;;;;;;;2.83;2.63;;;;;;;17.71;59.28;98669.00;5070383;28;39706;-75
2022/06/01 06:23:41;;;;;;;2.33;2.17;;;;;;;17.81;59.04;98672.47;5085523;28;41687;-74
2022/06/01 06:26:09;;;;;;;3.47;2.30;;;;;;;17.81;58.67;98655.56;5091070;28;44018;-77
2022/06/01 06:28:38;;;;;;;4.10;2.37;;;;;;;18.01;58.52;98665.22;5091224;28;42376;-76
2022/06/01 06:31:06;;;;;;;2.60;2.37;;;;;;;18.15;57.75;98678.16;5090769;28;39881;-77
2022/06/01 06:33:33;;;;;;;2.43;2.00;;;;;;;18.26;57.28;98686.00;5089449;28;41149;-76
2022/06/01 06:36:03;;;;;;;2.30;2.10;;;;;;;18.30;56.81;98673.97;5090097;28;41800;-77
2022/06/01 06:38:35;;;;;;;2.00;1.63;;;;;;;18.54;56.57;98675.28;5088866;28;43655;-75
2022/06/01 06:41:03;;;;;;;2.40;2.20;;;;;;;18.75;56.47;98683.91;5089783;28;39047;-77
2022/06/01 06:43:33;;;;;;;5.40;2.77;;;;;;;18.92;55.31;98691.13;5088980;28;40786;-76
2022/06/01 06:46:03;;;;;;;2.13;1.93;;;;;;;19.05;55.47;98685.38;5108769;28;43649;-75
2022/06/01 06:48:31;;;;;;;2.40;2.07;;;;;;;19.15;54.85;98696.06;5093808;28;43353;-77
2022/06/01 06:50:59;;;;;;;2.50;1.70;;;;;;;19.27;54.36;98692.97;5094814;28;39919;-76
2022/06/01 06:53:27;;;;;;;2.43;2.00;;;;;;;19.33;53.93;98684.28;5075782;28;40955;-80
2022/06/01 06:55:57;;;;;;;1.90;1.73;;;;;;;19.50;53.57;98685.31;5093646;28;42494;-76
2022/06/01 06:58:25;;;;;;;1.77;1.67;;;;;;;19.70;52.93;98688.63;5092161;28;41324;-78
2022/06/01 07:00:53;;;;;;;2.10;1.70;;;;;;;19.89;51.84;98695.66;5093529;28;38727;-81
2022/06/01 07:03:21;;;;;;;2.10;1.77;;;;;;;20.08;51.75;98695.41;5097970;27;41403;-78
2022/06/01 07:08:33;;;;;;;1.77;1.67;;;;;;;20.77;49.58;98714.03;5065064;28;42631;-78
2022/06/01 07:11:03;;;;;;;1.97;1.80;;;;;;;21.27;49.10;98723.09;5074670;28;40052;-77
2022/06/01 07:13:31;;;;;;;1.80;1.63;;;;;;;21.65;48.13;98738.59;5086356;28;42639;-77
2022/06/01 07:16:05;;;;;;;2.43;1.93;;;;;;;21.95;45.39;98747.88;5127642;27;43768;-82
2022/06/01 07:18:33;;;;;;;1.97;1.73;;;;;;;22.39;43.49;98739.34;5093584;28;42357;-76
2022/06/01 07:21:01;;;;;;;1.43;1.33;;;;;;;22.73;43.12;98752.56;5093469;28;40910;-82
2022/06/01 07:23:28;;;;;;;2.53;1.50;;;;;;;22.99;41.92;98768.53;5091926;28;42104;-75
2022/06/01 07:25:56;;;;;;;2.30;1.97;;;;;;;23.37;41.22;98772.19;5093351;28;42718;-83
2022/06/01 07:28:25;;;;;;;1.60;1.50;;;;;;;24.05;39.96;98776.72;5093700;28;42212;-81
2022/06/01 07:30:56;;;;;;;1.90;1.57;;;;;;;24.95;39.29;98772.06;5076455;28;38556;-80
2022/06/01 07:33:25;;;;;;;1.57;1.40;;;;;;;25.42;38.83;98788.66;5092859;28;42587;-81
2022/06/01 07:35:53;;;;;;;1.37;1.27;;;;;;;26.06;37.54;98788.69;5093126;28;42886;-72
2022/06/01 07:43:53;;;;;;;1.30;1.13;;;;;;;29.96;31.20;98815.25;5074833;28;40475;-77
2022/06/01 07:46:21;;;;;;;1.50;1.40;;;;;;;30.23;29.73;98825.97;5092243;28;44532;-76
2022/06/01 07:48:49;;;;;;;2.63;1.57;;;;;;;29.74;30.88;98810.34;5091779;28;41983;-76
2022/06/01 07:51:17;;;;;;;1.23;1.13;;;;;;;29.31;31.01;98810.94;5092679;28;39124;-75
2022/06/01 07:53:44;;;;;;;1.47;1.37;;;;;;;29.31;31.16;98811.78;5091587;28;41739;-77
2022/06/01 07:56:12;;;;;;;1.83;1.53;;;;;;;29.98;29.37;98809.56;5075689;28;42823;-77
2022/06/01 07:58:39;;;;;;;1.63;1.40;;;;;;;31.12;27.84;98830.19;5091352;28;41237;-77
2022/06/01 08:01:09;;;;;;;1.33;1.23;;;;;;;32.67;26.11;98839.28;5091691;28;39781;-85
2022/06/01 08:03:36;;;;;;;2.03;1.57;;;;;;;34.06;23.54;98842.81;5091922;28;42530;-77
2022/06/01 08:06:04;;;;;;;1.30;1.23;;;;;;;35.42;22.70;98848.78;5090809;28;42754;-78
2022/06/01 08:08:31;;;;;;;1.20;1.10;;;;;;;36.40;21.40;98861.44;5091714;28;41033;-79
2022/06/01 08:11:00;;;;;;;1.73;1.60;;;;;;;36.76;20.87;98867.25;5092564;28;38764;-77
2022/06/01 08:13:27;;;;;;;2.17;1.33;;;;;;;37.06;20.46;98864.72;5092788;28;41411;-84
2022/06/01 08:15:55;;;;;;;1.50;1.40;;;;;;;37.68;19.70;98863.94;5093329;28;43493;-77
2022/06/01 08:18:25;;;;;;;3.30;1.52;;;;;;;38.18;19.29;98856.88;5092474;28;43187;-77
2022/06/01 08:20:53;;;;;;;2.05;1.23;;;;;;;38.22;19.59;98847.72;5075310;28;38635;-75
2022/06/01 08:23:22;;;;;;;1.60;1.42;;;;;;;37.94;19.32;98828.88;5092329;28;42020;-76
2022/06/01 08:25:51;;;;;;;1.15;1.15;;;;;;;37.44;19.17;98860.78;5093337;28;43776;-76
2022/06/01 08:28:18;;;;;;;1.83;1.23;;;;;;;37.00;19.99;98849.19;5091197;28;42872;-76
2022/06/01 08:30:46;;;;;;;1.75;1.40;;;;;;;36.59;20.28;98832.38;5091829;28;40749;-75
2022/06/01 08:33:15;;;;;;;1.90;1.30;;;;;;;36.09;20.22;98841.03;5092524;28;41544;-77
2022/06/01 08:35:46;;;;;;;1.50;1.40;;;;;;;35.84;20.12;98846.28;5091661;28;43573;-75
2022/06/01 08:38:13;;;;;;;2.17;1.27;;;;;;;35.74;20.31;98838.72;5073889;28;43241;-80
2022/06/01 08:40:51;;;;;;;1.67;1.30;;;;;;;36.08;19.74;98844.03;5075218;28;38967;-78
2022/06/01 08:43:22;;;;;;;1.50;1.27;;;;;;;36.45;19.16;98850.47;5107603;28;44092;-74
2022/06/01 08:45:54;;;;;;;1.30;1.20;;;;;;;36.61;19.46;98843.09;5089696;28;42561;-78
2022/06/01 08:48:29;;;;;;;1.40;1.30;;;;;;;36.94;19.29;98851.13;5091770;28;42091;-74
2022/06/01 08:50:58;;;;;;;1.23;1.20;;;;;;;36.64;19.24;98848.09;5089848;28;40912;-73
2022/06/01 08:53:26;;;;;;;1.90;1.30;;;;;;;35.80;20.02;98837.69;5073498;28;42220;-75
2022/06/01 08:55:58;;;;;;;1.50;1.40;;;;;;;35.01;21.10;98823.44;5091869;28;42781;-75
2022/06/01 08:58:34;;;;;;;1.13;1.10;;;;;;;34.69;21.16;98830.66;5091223;28;42471;-75
2022/06/01 09:01:10;;;;;;;2.77;1.57;;;;;;;34.71;20.96;98831.25;5074990;28;39288;-78
2022/06/01 09:03:44;;;;;;;1.90;1.30;;;;;;;35.22;20.77;98825.41;5091105;28;42646;-78
2022/06/01 09:06:18;;;;;;;3.03;1.80;;;;;;;35.78;20.50;98822.50;5089082;28;43823;-78
2022/06/01 09:08:51;;;;;;;1.93;1.57;;;;;;;36.12;19.71;98840.47;5091114;28;42174;-78
2022/06/01 09:11:24;;;;;;;1.30;1.20;;;;;;;35.20;20.19;98846.00;5089935;28;39739;-82
2022/06/01 09:13:58;;;;;;;1.87;1.40;;;;;;;34.17;21.23;98837.22;5090840;28;41830;-77
2022/06/01 09:16:31;;;;;;;1.33;1.23;;;;;;;34.61;20.67;98828.34;5089684;28;42708;-79
2022/06/01 09:18:59;;;;;;;1.97;1.63;;;;;;;34.80;20.65;98832.50;5091326;28;41209;-84
2022/06/01 09:24:20;;;;;;;1.93;1.10;;;;;;;34.18;21.24;98835.31;5100491;28;40947;-73
2022/06/01 09:26:55;;;;;;;1.47;1.37;;;;;;;33.76;21.54;98830.16;5096364;28;42926;-70
2022/06/01 09:29:25;;;;;;;2.17;1.67;;;;;;;34.04;21.75;98828.47;5094147;28;42390;-73
2022/06/01 09:31:58;;;;;;;1.90;1.40;;;;;;;34.22;20.73;98820.00;5097717;28;40140;-73
2022/06/01 09:34:35;;;;;;;1.67;1.57;;;;;;;34.63;21.52;98817.91;5076804;28;43026;-74
2022/06/01 09:37:08;;;;;;;1.50;1.40;;;;;;;35.45;20.79;98829.00;5070947;28;43199;-75
2022/06/01 09:39:39;;;;;;;2.70;1.30;;;;;;;36.26;19.93;98829.88;5073677;28;43097;-75
2022/06/01 09:42:13;;;;;;;1.77;1.33;;;;;;;37.28;19.11;98837.78;5089385;28;40355;-76
2022/06/01 09:44:46;;;;;;;1.27;1.27;;;;;;;38.21;18.48;98845.25;5091046;28;43001;-74
2022/06/01 09:47:28;;;;;;;1.30;1.20;;;;;;;38.60;17.70;98854.69;5107097;28;42138;-76
2022/06/01 09:50:00;;;;;;;2.20;1.40;;;;;;;38.91;17.55;98849.94;5074086;28;43025;-76
2022/06/01 09:52:32;;;;;;;1.50;1.40;;;;;;;39.51;17.27;98842.59;5089676;28;40920;-78
2022/06/01 09:55:11;;;;;;;1.50;1.40;;;;;;;39.40;16.83;98852.03;5090412;28;40690;-73
2022/06/01 09:57:38;;;;;;;2.03;1.30;;;;;;;38.66;17.91;98830.59;5072838;28;42067;-76
2022/06/01 10:06:12;;;;;;;1.70;1.60;;;;;;;35.96;20.27;98814.72;5073446;28;44077;-76
2022/06/01 10:08:44;;;;;;;1.40;1.30;;;;;;;35.99;19.91;98813.31;5089730;28;42758;-78
2022/06/01 10:11:28;;;;;;;1.13;1.10;;;;;;;36.13;20.30;98802.69;5090927;28;41158;-78
2022/06/01 10:14:04;;;;;;;1.63;1.53;;;;;;;36.11;19.28;98822.25;5089978;28;41480;-74
2022/06/01 10:16:42;;;;;;;2.80;1.40;;;;;;;36.46;20.01;98808.00;5089965;28;42346;-75
2022/06/01 10:19:15;;;;;;;1.40;1.30;;;;;;;36.65;18.97;98822.19;5086576;28;42700;-76
2022/06/01 10:21:51;;;;;;;1.90;1.70;;;;;;;35.47;19.33;98810.31;5086661;28;42159;-76
2022/06/01 10:24:24;;;;;;;1.70;1.50;;;;;;;34.56;20.27;98812.59;5072874;28;38543;-78
2022/06/01 10:26:58;;;;;;;1.30;1.20;;;;;;;33.48;20.77;98813.69;5088740;28;42514;-75
2022/06/01 10:29:31;;;;;;;1.30;1.20;;;;;;;33.32;21.67;98808.94;5088098;28;43620;-75
2022/06/01 10:32:04;;;;;;;1.77;1.40;;;;;;;33.85;21.42;98801.22;5088719;28;43106;-83
2022/06/01 10:34:38;;;;;;;2.87;1.20;;;;;;;34.19;21.16;98802.09;5073508;28;39146;-76
2022/06/01 10:37:17;;;;;;;1.77;1.50;;;;;;;33.87;21.75;98804.56;5107483;28;41068;-80
2022/06/01 10:39:52;;;;;;;1.93;1.40;;;;;;;33.38;22.10;98799.75;5087284;28;42735;-78
2022/06/01 10:42:24;;;;;;;1.90;1.57;;;;;;;32.98;22.63;98792.31;5087723;28;42081;-78
2022/06/01 10:44:59;;;;;;;1.40;1.30;;;;;;;32.59;22.49;98798.53;5121497;27;39673;-77
2022/06/01 10:47:33;;;;;;;1.33;1.20;;;;;;;32.69;24.09;98782.28;5088562;28;41743;-77
2022/06/01 10:50:06;;;;;;;1.47;1.37;;;;;;;32.79;23.54;98788.03;5089946;28;44814;-75
2022/06/01 10:52:39;;;;;;;1.80;1.67;;;;;;;32.77;23.15;98787.44;5089671;28;42214;-75
2022/06/01 10:55:18;;;;;;;1.73;1.20;;;;;;;32.73;23.30;98789.00;5087157;28;39641;-76
2022/06/01 10:57:48;;;;;;;2.30;1.40;;;;;;;32.70;22.64;98786.72;5106397;28;43145;-80
2022/06/01 11:00:18;;;;;;;1.17;1.07;;;;;;;32.77;22.67;98785.53;5090289;28;42195;-76
2022/06/01 11:03:22;;;;;;;1.33;1.20;;;;;;;32.39;22.98;98782.44;5072581;28;43686;-80
2022/06/01 11:05:59;;;;;;;2.43;1.10;;;;;;;31.73;22.97;98776.13;5073580;28;41456;-82
2022/06/01 11:08:41;;;;;;;1.33;1.23;;;;;;;31.75;23.86;98776.72;5072386;28;41765;-80
2022/06/01 11:11:18;;;;;;;0.90;0.90;;;;;;;31.63;24.65;98750.34;5090326;28;41088;-80
2022/06/01 11:14:12;;;;;;;2.13;1.50;;;;;;;31.66;23.58;98755.34;5090607;28;43246;-76
2022/06/01 11:16:55;;;;;;;1.20;1.10;;;;;;;31.61;25.10;98747.84;5079535;28;38329;-73
2022/06/01 11:19:39;;;;;;;2.00;1.10;;;;;;;31.68;24.48;98743.13;5087586;28;41905;-76
2022/06/01 11:22:20;;;;;;;1.20;1.10;;;;;;;31.89;23.92;98744.50;5088919;28;44641;-78
2022/06/01 11:25:08;;;;;;;1.03;1.03;;;;;;;31.48;22.25;98758.97;5087583;28;42368;-78
2022/06/01 11:27:49;;;;;;;1.17;1.17;;;;;;;31.10;23.16;98755.72;5088799;28;38869;-77
2022/06/01 11:30:20;;;;;;;1.20;1.10;;;;;;;31.42;22.96;98759.91;5089927;28;43852;-75
2022/06/01 11:32:56;;;;;;;1.43;1.13;;;;;;;31.12;22.96;98759.06;5070470;28;42546;-77
2022/06/01 11:35:34;;;;;;;1.20;1.10;;;;;;;30.80;23.37;98766.56;5070982;28;42300;-80
2022/06/01 11:38:09;;;;;;;2.03;1.27;;;;;;;31.16;23.78;98743.88;5081196;28;39968;-76
2022/06/01 11:40:46;;;;;;;1.20;0.93;;;;;;;31.05;24.07;98754.47;5076483;28;41804;-78
2022/06/01 11:43:23;;;;;;;1.33;1.00;;;;;;;30.77;23.21;98762.41;5092748;28;43750;-77
2022/06/01 11:45:55;;;;;;;2.53;1.07;;;;;;;30.38;23.82;98747.22;5109780;28;43191;-76
2022/06/01 11:48:29;;;;;;;0.90;0.87;;;;;;;30.62;23.93;98751.00;5126119;27;39675;-76
2022/06/01 11:51:09;;;;;;;1.83;1.10;;;;;;;31.82;22.36;98749.22;5091150;28;41818;-77
2022/06/01 11:53:44;;;;;;;1.20;1.10;;;;;;;33.57;21.67;98757.28;5092336;28;41716;-77
2022/06/01 11:56:24;;;;;;;1.90;0.90;;;;;;;35.01;20.84;98756.56;5089329;28;42878;-77
2022/06/01 11:59:14;;;;;;;1.13;1.00;;;;;;;35.91;19.13;98769.72;5093841;28;39902;-75
2022/06/01 12:01:52;;;;;;;1.40;0.97;;;;;;;36.92;18.86;98764.13;5093236;28;41779;-75
2022/06/01 12:04:24;;;;;;;1.00;0.97;;;;;;;37.38;17.77;98765.97;5074981;28;42099;-73
2022/06/01 12:07:05;;;;;;;1.53;1.17;;;;;;;35.99;17.74;98772.81;5091762;28;41246;-75
2022/06/01 12:09:41;;;;;;;1.70;0.93;;;;;;;34.57;19.20;98768.34;5075099;28;40594;-76
2022/06/01 12:12:25;;;;;;;1.07;0.97;;;;;;;33.20;20.74;98734.84;5074774;28;40911;-77
2022/06/01 12:15:16;;;;;;;1.70;1.10;;;;;;;33.54;21.18;98752.25;5090288;28;42543;-78
2022/06/01 12:18:00;;;;;;;1.10;1.10;;;;;;;35.56;20.49;98748.13;5090682;28;42304;-78